Time;durP1;ratioP1;P1;durP2;ratioP2;P2;SDS_P1;SDS_P2;PMS_P1;PMS_P2;Temp;Humidity;BMP_temperature;BMP_pressure;BME280_temperature;BME280_humidity;BME280_pressure;Samples;Min_cycle;Max_cycle;Signal;HPM_P1;HPM_P2
2022/10/17 00:00:51;;;;;;;;;;;;;;;15.21;63.09;101709.22;5305990;32;918148;-75
2022/10/17 00:03:53;;;;;;;;;;;;;;;15.08;63.59;101712.31;5336188;32;35047;-69
2022/10/17 00:06:54;;;;;;;;;;;;;;;14.86;64.22;101706.06;5342696;32;36125;-74
2022/10/17 00:09:56;;;;;;;;;;;;;;;14.35;66.43;101710.44;5358684;32;44694;-74
2022/10/17 00:12:58;;;;;;;;;;;;;;;14.44;66.21;101703.97;5336226;32;34975;-70
2022/10/17 00:16:00;;;;;;;;;;;;;;;13.72;69.55;101723.97;5362643;32;34375;-69
2022/10/17 00:19:02;;;;;;;;;;;;;;;14.36;67.11;101714.84;5341427;32;34916;-70
2022/10/17 00:22:04;;;;;;;;;;;;;;;14.62;65.58;101715.75;5352238;32;35689;-74
2022/10/17 00:25:06;;;;;;;;;;;;;;;13.89;68.61;101726.06;5314528;32;35568;-74
2022/10/17 00:28:09;;;;;;;;;;;;;;;14.33;67.21;101725.50;5341982;32;35254;-70
2022/10/17 00:31:11;;;;;;;;;;;;;;;14.89;65.07;101714.78;5341811;32;34782;-75
2022/10/17 00:34:12;;;;;;;;;;;;;;;14.60;65.80;101717.56;5339003;32;34187;-71
2022/10/17 00:37:14;;;;;;;;;;;;;;;14.86;64.80;101717.50;5348414;32;34192;-73
2022/10/17 00:40:16;;;;;;;;;;;;;;;14.53;65.67;101716.91;5342294;32;35354;-70
2022/10/17 00:43:18;;;;;;;;;;;;;;;13.83;68.80;101727.12;5348508;32;34375;-73
2022/10/17 00:46:20;;;;;;;;;;;;;;;13.46;70.84;101727.38;5354308;32;34892;-74
2022/10/17 00:49:23;;;;;;;;;;;;;;;13.80;69.50;101719.31;5326844;32;34107;-74
2022/10/17 00:52:25;;;;;;;;;;;;;;;13.33;72.14;101732.19;5345613;32;34702;-69
2022/10/17 00:55:30;;;;;;;;;;;;;;;13.47;71.28;101724.72;5328074;32;44509;-75
2022/10/17 00:58:32;;;;;;;;;;;;;;;14.58;66.52;101714.97;5360370;32;34257;-73
2022/10/17 01:01:33;;;;;;;;;;;;;;;14.02;68.10;101720.34;5329182;32;35028;-74
2022/10/17 01:04:36;;;;;;;;;;;;;;;14.20;67.49;101707.44;5349509;32;34962;-75
2022/10/17 01:07:38;;;;;;;;;;;;;;;13.62;69.95;101711.94;5349220;32;35679;-74
2022/10/17 01:10:46;;;;;;;;;;;;;;;13.48;70.88;101718.53;5327311;32;35020;-69
2022/10/17 01:13:52;;;;;;;;;;;;;;;13.24;72.02;101717.47;5358715;32;35444;-74
2022/10/17 01:16:58;;;;;;;;;;;;;;;13.53;70.61;101724.53;5329903;32;34207;-74
2022/10/17 01:20:09;;;;;;;;;;;;;;;14.04;69.13;101717.69;5359089;32;45967;-69
2022/10/17 01:23:23;;;;;;;;;;;;;;;14.34;67.42;101710.50;5337095;32;35175;-69
2022/10/17 01:26:31;;;;;;;;;;;;;;;14.00;68.50;101718.69;5316203;32;34928;-69
2022/10/17 01:29:35;;;;;;;;;;;;;;;13.30;71.59;101721.69;5358809;32;44610;-69
2022/10/17 01:32:54;;;;;;;;;;;;;;;13.62;70.67;101712.81;5335060;32;34617;-74
2022/10/17 01:36:00;;;;;;;;;;;;;;;13.67;69.95;101720.59;5339301;32;43360;-69
2022/10/17 01:39:12;;;;;;;;;;;;;;;13.61;69.80;101703.16;5344175;32;34278;-73
2022/10/17 01:42:16;;;;;;;;;;;;;;;13.49;71.25;101714.97;5328336;32;34952;-73
2022/10/17 01:45:32;;;;;;;;;;;;;;;14.00;68.43;101708.97;5345870;32;34275;-69
2022/10/17 01:48:34;;;;;;;;;;;;;;;13.19;71.82;101719.31;5351160;32;44507;-73
2022/10/17 01:51:40;;;;;;;;;;;;;;;13.28;71.72;101719.09;5346250;32;34749;-73
2022/10/17 01:54:44;;;;;;;;;;;;;;;13.95;69.42;101713.53;5328945;32;34621;-69
2022/10/17 01:57:50;;;;;;;;;;;;;;;13.81;69.03;101719.25;5328048;32;34069;-69
2022/10/17 02:00:52;;;;;;;;;;;;;;;13.31;71.20;101726.06;5346406;32;35595;-73
2022/10/17 02:03:54;;;;;;;;;;;;;;;13.78;69.48;101729.03;5326504;32;35975;-69
2022/10/17 02:06:56;;;;;;;;;;;;;;;14.12;66.63;101726.22;5341744;32;36483;-73
2022/10/17 02:09:57;;;;;;;;;;;;;;;13.25;70.66;101731.53;5341271;32;34929;-69
2022/10/17 02:13:11;;;;;;;;;;;;;;;13.99;67.90;101725.75;5357603;32;34248;-73
2022/10/17 02:16:31;;;;;;;;;;;;;;;13.93;67.49;101720.66;5346382;32;35359;-69
2022/10/17 02:19:38;;;;;;;;;;;;;;;14.06;67.39;101729.91;5341145;32;44600;-74
2022/10/17 02:22:40;;;;;;;;;;;;;;;14.05;67.46;101722.03;5358656;32;34364;-73
2022/10/17 02:25:50;;;;;;;;;;;;;;;14.40;66.19;101723.50;5304386;32;35226;-73
2022/10/17 02:28:58;;;;;;;;;;;;;;;14.75;64.29;101722.34;5343469;32;35264;-70
2022/10/17 02:32:02;;;;;;;;;;;;;;;14.82;63.58;101725.63;5336710;32;44825;-74
2022/10/17 02:35:04;;;;;;;;;;;;;;;14.21;65.58;101738.25;5324030;32;35734;-69
2022/10/17 02:38:07;;;;;;;;;;;;;;;13.21;70.28;101743.09;5353825;32;36398;-71
2022/10/17 02:41:09;;;;;;;;;;;;;;;13.04;71.43;101734.75;5326251;32;34575;-69
2022/10/17 02:44:11;;;;;;;;;;;;;;;13.93;68.00;101740.94;5344579;32;34720;-73
2022/10/17 02:47:21;;;;;;;;;;;;;;;14.11;66.77;101747.41;5342908;32;34201;-73
2022/10/17 02:50:26;;;;;;;;;;;;;;;13.77;67.44;101749.31;5337872;32;35476;-69
2022/10/17 02:53:43;;;;;;;;;;;;;;;13.94;67.43;101740.03;5336885;32;44441;-69
2022/10/17 02:56:47;;;;;;;;;;;;;;;14.55;64.66;101748.59;5327720;32;34248;-73
2022/10/17 02:59:49;;;;;;;;;;;;;;;14.19;65.48;101753.31;5345668;32;34180;-70
2022/10/17 03:02:52;;;;;;;;;;;;;;;14.15;66.06;101756.97;5335424;32;34782;-74
2022/10/17 03:05:53;;;;;;;;;;;;;;;14.14;65.94;101758.75;5345871;32;35973;-73
2022/10/17 03:08:55;;;;;;;;;;;;;;;13.81;67.04;101756.25;5326181;32;45604;-70
2022/10/17 03:11:57;;;;;;;;;;;;;;;13.90;66.63;101759.50;5342722;32;44795;-70
2022/10/17 03:14:59;;;;;;;;;;;;;;;14.41;64.66;101756.97;5358579;32;35720;-74
2022/10/17 03:18:01;;;;;;;;;;;;;;;14.55;63.76;101751.25;5339769;32;35733;-74
2022/10/17 03:21:02;;;;;;;;;;;;;;;14.56;63.64;101759.16;5360204;32;34995;-66
2022/10/17 03:24:04;;;;;;;;;;;;;;;14.09;65.42;101769.47;5322942;32;35004;-75
2022/10/17 03:27:06;;;;;;;;;;;;;;;14.35;64.34;101767.75;5351842;32;34687;-70
2022/10/17 03:30:08;;;;;;;;;;;;;;;13.89;65.86;101781.56;5344547;32;34905;-68
2022/10/17 03:33:10;;;;;;;;;;;;;;;13.73;67.16;101779.41;5322175;32;35367;-70
2022/10/17 03:36:13;;;;;;;;;;;;;;;13.57;67.87;101778.12;5360372;32;34238;-70
2022/10/17 03:39:15;;;;;;;;;;;;;;;12.80;71.63;101782.00;5340830;32;35347;-70
2022/10/17 03:42:17;;;;;;;;;;;;;;;12.77;71.85;101790.00;5358152;32;35094;-74
2022/10/17 03:45:19;;;;;;;;;;;;;;;13.80;67.64;101795.94;5340249;32;34370;-75
2022/10/17 03:48:20;;;;;;;;;;;;;;;13.90;65.69;101791.22;5356471;32;34125;-70
2022/10/17 03:51:22;;;;;;;;;;;;;;;13.40;67.56;101797.13;5329051;32;35440;-74
2022/10/17 03:54:24;;;;;;;;;;;;;;;13.40;68.56;101804.19;5325176;32;35266;-70
2022/10/17 03:57:26;;;;;;;;;;;;;;;13.13;69.61;101801.31;5358363;32;44336;-71
2022/10/17 04:00:28;;;;;;;;;;;;;;;13.45;68.78;101802.25;5339211;32;35346;-70
2022/10/17 04:03:30;;;;;;;;;;;;;;;13.62;67.57;101804.41;5359291;32;34926;-70
2022/10/17 04:06:32;;;;;;;;;;;;;;;13.19;68.21;101797.66;5327104;32;35725;-69
2022/10/17 04:09:34;;;;;;;;;;;;;;;13.45;68.44;101810.16;5356119;32;35431;-69
2022/10/17 04:12:36;;;;;;;;;;;;;;;12.83;70.67;101812.72;5340185;32;34390;-70
2022/10/17 04:15:37;;;;;;;;;;;;;;;13.60;67.80;101815.03;5339432;32;34832;-69
2022/10/17 04:18:47;;;;;;;;;;;;;;;13.87;65.68;101812.47;5711023;27;34461;-96
2022/10/17 04:21:55;;;;;;;;;;;;;;;13.70;66.61;101827.03;5409031;32;34344;-96
2022/10/17 04:25:03;;;;;;;;;;;;;;;12.66;71.49;101828.97;5407325;32;33720;-96
2022/10/17 04:28:16;;;;;;;;;;;;;;;12.70;71.23;101833.28;5425366;32;43412;-95
2022/10/17 04:31:24;;;;;;;;;;;;;;;13.30;69.20;101822.03;5420089;32;34810;-96
2022/10/17 04:34:41;;;;;;;;;;;;;;;12.76;71.28;101832.25;5432447;32;35385;-96
2022/10/17 04:37:46;;;;;;;;;;;;;;;13.34;68.15;101830.75;5425271;32;43551;-96
2022/10/17 04:40:49;;;;;;;;;;;;;;;13.61;67.04;101823.81;5409911;32;32693;-96
2022/10/17 04:43:58;;;;;;;;;;;;;;;13.93;65.50;101823.72;5425676;32;34587;-96
2022/10/17 04:47:14;;;;;;;;;;;;;;;13.65;66.31;101833.37;5449423;32;43298;-96
2022/10/17 04:50:30;;;;;;;;;;;;;;;13.94;65.08;101828.09;5405012;32;35274;-96
2022/10/17 04:53:54;;;;;;;;;;;;;;;14.04;64.40;101832.22;5423239;32;43220;-96
2022/10/17 04:56:57;;;;;;;;;;;;;;;13.86;65.15;101837.19;5413563;32;34158;-96
2022/10/17 05:00:03;;;;;;;;;;;;;;;13.30;67.53;101847.56;5427696;32;35808;-96
2022/10/17 05:03:12;;;;;;;;;;;;;;;13.37;67.32;101847.34;5421973;32;43809;-96
2022/10/17 05:06:28;;;;;;;;;;;;;;;13.59;66.59;101849.38;5408063;32;34030;-96
2022/10/17 05:09:43;;;;;;;;;;;;;;;13.28;67.47;101855.53;5413815;32;34820;-96
2022/10/17 05:13:11;;;;;;;;;;;;;;;13.65;66.60;101850.09;5390392;32;33064;-96
2022/10/17 05:16:26;;;;;;;;;;;;;;;13.76;65.82;101853.28;5382613;32;35814;-96
2022/10/17 05:19:30;;;;;;;;;;;;;;;13.66;66.07;101864.19;5384872;32;32954;-95
2022/10/17 05:22:34;;;;;;;;;;;;;;;13.77;65.97;101865.59;5364247;32;34296;-96
2022/10/17 05:25:47;;;;;;;;;;;;;;;13.96;64.90;101865.06;5356187;32;44799;-96
2022/10/17 05:28:59;;;;;;;;;;;;;;;13.96;64.89;101871.19;5373793;32;34165;-96
2022/10/17 05:32:07;;;;;;;;;;;;;;;13.69;65.63;101879.94;5393497;32;35953;-96
2022/10/17 05:35:17;;;;;;;;;;;;;;;14.06;64.45;101880.59;5363976;32;44022;-96
2022/10/17 05:38:36;;;;;;;;;;;;;;;13.73;65.27;101885.09;5368139;32;32661;-96
2022/10/17 05:41:39;;;;;;;;;;;;;;;13.19;68.64;101897.97;5349379;32;33989;-91
2022/10/17 05:44:43;;;;;;;;;;;;;;;13.82;65.91;101894.53;5367093;32;44764;-92
2022/10/17 05:47:45;;;;;;;;;;;;;;;14.15;64.46;101886.53;5377977;32;34970;-95
2022/10/17 05:50:50;;;;;;;;;;;;;;;14.35;64.16;101900.00;5386045;32;33615;-96
2022/10/17 05:54:01;;;;;;;;;;;;;;;14.75;62.86;101904.06;5387054;32;35494;-96
2022/10/17 05:57:04;;;;;;;;;;;;;;;15.26;60.01;101905.88;5418193;32;34419;-95
2022/10/17 06:00:09;;;;;;;;;;;;;;;15.28;59.77;101904.06;5394287;32;35099;-96
2022/10/17 06:03:12;;;;;;;;;;;;;;;15.47;59.33;101904.28;5411652;32;44751;-96
2022/10/17 06:06:21;;;;;;;;;;;;;;;15.45;59.49;101914.91;5375369;27;302782;-71
2022/10/17 06:09:25;;;;;;;;;;;;;;;15.68;57.91;101919.44;5348147;32;35876;-70
2022/10/17 06:12:27;;;;;;;;;;;;;;;16.95;55.16;101911.91;5388855;32;34686;-71
2022/10/17 06:15:29;;;;;;;;;;;;;;;17.32;52.83;101921.81;5375948;32;34109;-70
2022/10/17 06:18:31;;;;;;;;;;;;;;;17.86;51.45;101923.91;5379539;32;34018;-72
2022/10/17 06:21:36;;;;;;;;;;;;;;;18.07;50.85;101931.81;5384076;32;35970;-72
2022/10/17 06:24:38;;;;;;;;;;;;;;;18.39;50.06;101927.66;5379738;32;34196;-69
2022/10/17 06:27:40;;;;;;;;;;;;;;;19.91;45.57;101919.09;5396489;32;44257;-70
2022/10/17 06:30:42;;;;;;;;;;;;;;;20.38;44.22;101930.78;5367540;32;34231;-70
2022/10/17 06:33:45;;;;;;;;;;;;;;;20.19;44.47;101923.78;5379458;32;34259;-72
2022/10/17 06:36:48;;;;;;;;;;;;;;;17.62;51.41;101948.00;5374910;32;34555;-73
2022/10/17 06:39:50;;;;;;;;;;;;;;;18.79;48.34;101955.94;5377077;32;34692;-72
2022/10/17 06:42:52;;;;;;;;;;;;;;;19.87;45.50;101941.56;5384020;32;34248;-73
2022/10/17 06:45:54;;;;;;;;;;;;;;;18.94;48.14;101957.84;5376522;32;36141;-74
2022/10/17 06:49:01;;;;;;;;;;;;;;;20.18;45.37;101955.91;5380576;32;34912;-71
2022/10/17 06:52:03;;;;;;;;;;;;;;;19.67;46.11;101957.75;5374110;32;34506;-72
2022/10/17 06:55:05;;;;;;;;;;;;;;;20.98;43.28;101957.66;5383421;32;33555;-71
2022/10/17 06:58:08;;;;;;;;;;;;;;;20.82;42.78;101958.56;5358580;32;36937;-72
2022/10/17 07:01:11;;;;;;;;;;;;;;;20.60;42.95;101959.84;5384829;32;43428;-80
2022/10/17 07:04:14;;;;;;;;;;;;;;;19.02;46.41;101968.13;5385464;32;35989;-83
2022/10/17 07:07:17;;;;;;;;;;;;;;;19.33;45.19;101974.59;5377487;32;35538;-86
2022/10/17 07:10:19;;;;;;;;;;;;;;;18.42;46.50;101975.44;5384027;32;35957;-79
2022/10/17 07:13:21;;;;;;;;;;;;;;;18.65;46.32;101982.34;5390733;32;34340;-84
2022/10/17 07:16:23;;;;;;;;;;;;;;;19.42;45.25;101980.31;5388332;32;34878;-85
2022/10/17 07:19:28;;;;;;;;;;;;;;;21.60;40.40;101972.69;5379268;32;33880;-83
2022/10/17 07:22:31;;;;;;;;;;;;;;;23.37;36.00;101975.69;5371652;32;33570;-83
2022/10/17 07:25:32;;;;;;;;;;;;;;;22.27;37.39;101970.38;5379679;32;35638;-82
2022/10/17 07:28:41;;;;;;;;;;;;;;;20.68;41.01;101979.00;5369559;32;44265;-73
2022/10/17 07:31:44;;;;;;;;;;;;;;;19.06;44.74;101984.81;5372160;32;34405;-72
2022/10/17 07:34:46;;;;;;;;;;;;;;;19.57;44.14;101984.00;5371907;32;35179;-79
2022/10/17 07:37:49;;;;;;;;;;;;;;;19.89;43.12;101976.16;5383204;32;35457;-76
2022/10/17 07:40:57;;;;;;;;;;;;;;;18.56;46.46;101988.09;5360812;32;34177;-75
2022/10/17 07:43:59;;;;;;;;;;;;;;;16.67;50.71;101997.06;5368094;32;34075;-75
2022/10/17 07:47:01;;;;;;;;;;;;;;;16.37;52.37;101999.13;5357231;32;34192;-74
2022/10/17 07:50:04;;;;;;;;;;;;;;;17.49;49.49;101999.06;5362668;32;34029;-76
2022/10/17 07:53:06;;;;;;;;;;;;;;;16.91;50.90;101997.94;5357832;32;34379;-76
2022/10/17 07:56:10;;;;;;;;;;;;;;;17.05;50.13;101996.44;5360405;32;34348;-73
2022/10/17 07:59:12;;;;;;;;;;;;;;;17.08;50.55;101986.63;5363933;32;43296;-72
2022/10/17 08:02:19;;;;;;;;;;;;;;;16.99;50.60;101995.81;5359032;32;36555;-71
2022/10/17 08:05:21;;;;;;;;;;;;;;;16.52;51.01;101998.53;5357254;32;35739;-78
2022/10/17 08:08:23;;;;;;;;;;;;;;;17.00;50.27;102000.22;5371570;32;34278;-72
2022/10/17 08:11:25;;;;;;;;;;;;;;;16.34;52.11;102009.84;5367393;32;33998;-73
2022/10/17 08:14:27;;;;;;;;;;;;;;;17.11;50.48;102016.59;5387628;32;35584;-71
2022/10/17 08:17:29;;;;;;;;;;;;;;;17.62;47.92;102019.81;5357737;32;34165;-71
2022/10/17 08:20:30;;;;;;;;;;;;;;;17.76;47.62;102014.78;5376282;32;32912;-76
2022/10/17 08:23:33;;;;;;;;;;;;;;;16.35;51.70;102014.22;5381522;32;34364;-72
2022/10/17 08:26:34;;;;;;;;;;;;;;;16.17;51.94;102023.75;5365280;32;34879;-73
2022/10/17 08:29:47;;;;;;;;;;;;;;;16.51;51.19;102016.25;5387292;32;44520;-69
2022/10/17 08:32:49;;;;;;;;;;;;;;;16.90;50.92;102018.31;5360304;32;34248;-83
2022/10/17 08:35:51;;;;;;;;;;;;;;;16.97;50.05;102019.81;5376996;32;35698;-81
2022/10/17 08:38:53;;;;;;;;;;;;;;;16.87;50.43;102022.87;5377829;32;34215;-82
2022/10/17 08:42:04;;;;;;;;;;;;;;;17.40;48.05;102014.53;5367082;32;34204;-91
2022/10/17 08:45:15;;;;;;;;;;;;;;;18.13;46.55;102011.38;5390540;32;34477;-82
2022/10/17 08:48:18;;;;;;;;;;;;;;;17.55;47.84;102003.25;5370118;32;44374;-81
2022/10/17 08:51:27;;;;;;;;;;;;;;;17.68;47.30;102007.09;5382202;32;34990;-74
2022/10/17 08:54:34;;;;;;;;;;;;;;;18.44;45.83;102002.00;5374022;32;33705;-73
2022/10/17 08:57:36;;;;;;;;;;;;;;;18.23;45.94;102004.72;5377886;32;34328;-74
2022/10/17 09:00:37;;;;;;;;;;;;;;;17.86;46.70;102008.12;5388292;32;34604;-77
2022/10/17 09:03:58;;;;;;;;;;;;;;;17.95;47.01;102005.06;5366344;32;35794;-78
2022/10/17 09:07:18;;;;;;;;;;;;;;;18.94;44.57;102008.47;5392964;32;34367;-76
2022/10/17 09:10:30;;;;;;;;;;;;;;;17.71;45.96;102015.00;5357977;32;34291;-80
2022/10/17 09:13:47;;;;;;;;;;;;;;;17.92;45.91;102007.00;5375329;32;35717;-78
2022/10/17 09:16:58;;;;;;;;;;;;;;;18.71;43.91;102008.72;5381561;32;45269;-74
2022/10/17 09:20:10;;;;;;;;;;;;;;;18.06;45.35;102002.78;5369993;32;33577;-75
2022/10/17 09:23:15;;;;;;;;;;;;;;;18.37;44.50;101999.59;5379902;32;44805;-80
2022/10/17 09:26:17;;;;;;;;;;;;;;;18.53;43.85;102002.41;5372262;32;33032;-79
2022/10/17 09:29:20;;;;;;;;;;;;;;;18.79;43.00;102003.88;5382467;32;35457;-81
2022/10/17 09:32:23;;;;;;;;;;;;;;;19.45;41.62;101998.84;5363458;32;34248;-78
2022/10/17 09:35:26;;;;;;;;;;;;;;;18.63;43.21;102001.06;5364855;32;34437;-75
2022/10/17 09:38:39;;;;;;;;;;;;;;;19.81;40.73;101992.56;5389056;32;36289;-71
2022/10/17 09:41:44;;;;;;;;;;;;;;;19.68;39.99;102002.16;5362153;32;44590;-78
2022/10/17 09:44:50;;;;;;;;;;;;;;;19.82;39.62;101996.09;5386107;32;35480;-82
2022/10/17 09:47:54;;;;;;;;;;;;;;;19.49;40.04;102005.72;5386731;32;35602;-80
2022/10/17 09:51:01;;;;;;;;;;;;;;;20.38;38.76;101992.19;5370614;32;34173;-77
2022/10/17 09:54:25;;;;;;;;;;;;;;;20.78;36.56;101991.72;5371381;32;34528;-78
2022/10/17 09:57:27;;;;;;;;;;;;;;;21.22;35.93;101990.13;5386959;32;34209;-81
2022/10/17 10:00:28;;;;;;;;;;;;;;;21.53;35.29;101990.06;5400671;32;34266;-88
2022/10/17 10:03:30;;;;;;;;;;;;;;;21.54;35.50;101989.13;5380177;32;34118;-83
2022/10/17 10:06:32;;;;;;;;;;;;;;;22.35;34.84;101981.47;5385223;32;35436;-89
2022/10/17 10:09:35;;;;;;;;;;;;;;;24.42;31.97;101976.44;5357582;32;34884;-83
2022/10/17 10:12:41;;;;;;;;;;;;;;;25.52;28.43;101978.09;5369817;32;43802;-79
2022/10/17 10:15:46;;;;;;;;;;;;;;;23.96;30.99;101978.81;5376559;32;34329;-79
2022/10/17 10:18:49;;;;;;;;;;;;;;;23.85;30.70;101984.94;5352894;32;35788;-81
2022/10/17 10:21:59;;;;;;;;;;;;;;;23.02;32.08;101983.44;5373376;32;33468;-81
2022/10/17 10:25:07;;;;;;;;;;;;;;;22.58;33.34;101979.13;5375061;32;34253;-75
2022/10/17 10:28:10;;;;;;;;;;;;;;;22.64;33.45;101979.59;5371106;32;34121;-76
2022/10/17 10:31:12;;;;;;;;;;;;;;;22.86;32.84;101978.19;5380549;32;44662;-77
2022/10/17 10:34:15;;;;;;;;;;;;;;;23.92;30.96;101966.56;5372174;32;34409;-73
2022/10/17 10:37:21;;;;;;;;;;;;;;;23.51;31.39;101963.09;5389970;32;35648;-85
2022/10/17 10:40:27;;;;;;;;;;;;;;;23.88;31.11;101973.09;5377106;32;32878;-72
2022/10/17 10:43:32;;;;;;;;;;;;;;;23.45;32.45;101971.56;5383231;32;34234;-72
2022/10/17 10:46:34;;;;;;;;;;;;;;;23.35;32.10;101970.44;5379390;32;33943;-72
2022/10/17 10:49:39;;;;;;;;;;;;;;;23.32;32.19;101964.44;5370898;32;36393;-73
2022/10/17 10:52:42;;;;;;;;;;;;;;;24.06;30.77;101961.06;5386189;32;44392;-72
2022/10/17 10:55:51;;;;;;;;;;;;;;;23.72;31.14;101962.59;5357786;32;35085;-73
2022/10/17 10:58:59;;;;;;;;;;;;;;;23.85;31.31;101960.78;5390352;32;34092;-72
2022/10/17 11:02:03;;;;;;;;;;;;;;;22.40;33.92;101959.72;5375744;32;34155;-74
2022/10/17 11:05:12;;;;;;;;;;;;;;;23.71;32.01;101950.16;5363490;32;32645;-74
2022/10/17 11:08:13;;;;;;;;;;;;;;;22.68;33.50;101948.97;5373640;32;45111;-70
2022/10/17 11:11:22;;;;;;;;;;;;;;;22.64;33.58;101960.84;5367029;32;34308;-71
2022/10/17 11:14:30;;;;;;;;;;;;;;;22.01;35.15;101958.59;5374589;32;34112;-72
2022/10/17 11:17:41;;;;;;;;;;;;;;;22.83;33.45;101952.47;5376780;32;34411;-68
2022/10/17 11:20:42;;;;;;;;;;;;;;;22.95;33.19;101949.00;5376145;32;44511;-72
2022/10/17 11:23:52;;;;;;;;;;;;;;;24.80;30.27;101940.50;5383615;32;34389;-78
2022/10/17 11:26:55;;;;;;;;;;;;;;;26.50;27.23;101940.72;5370634;32;35199;-78
2022/10/17 11:29:59;;;;;;;;;;;;;;;28.92;24.12;101921.37;5383982;32;36791;-75
2022/10/17 11:33:02;;;;;;;;;;;;;;;26.65;26.54;101939.44;5365469;32;34162;-75
2022/10/17 11:36:05;;;;;;;;;;;;;;;25.80;28.16;101926.53;5378211;32;35291;-73
2022/10/17 11:39:10;;;;;;;;;;;;;;;23.80;31.09;101930.69;5374703;32;35112;-70
2022/10/17 11:42:14;;;;;;;;;;;;;;;24.12;31.18;101925.72;5376926;32;44186;-70
2022/10/17 11:45:17;;;;;;;;;;;;;;;23.56;31.95;101921.63;5388059;32;34562;-68
2022/10/17 11:48:24;;;;;;;;;;;;;;;24.64;30.34;101915.72;5378205;32;34368;-78
2022/10/17 11:51:26;;;;;;;;;;;;;;;23.33;32.38;101912.50;5388236;32;35410;-77
2022/10/17 11:54:49;;;;;;;;;;;;;;;24.45;30.56;101914.38;5368858;32;44610;-70
2022/10/17 11:58:11;;;;;;;;;;;;;;;23.72;31.81;101925.88;5386731;32;37196;-75
2022/10/17 12:01:15;;;;;;;;;;;;;;;24.25;36.02;101923.88;5382170;32;44951;-72
2022/10/17 12:04:29;;;;;;;;;;;;;;;24.84;33.82;101915.06;5380442;32;35458;-78
2022/10/17 12:07:41;;;;;;;;;;;;;;;24.48;30.53;101911.47;5363616;32;36570;-79
2022/10/17 12:10:43;;;;;;;;;;;;;;;23.10;33.50;101917.59;5371323;32;46176;-77
2022/10/17 12:13:46;;;;;;;;;;;;;;;22.76;33.96;101910.09;5383547;32;34588;-76
2022/10/17 12:16:48;;;;;;;;;;;;;;;24.21;31.41;101906.25;5389728;32;33694;-74
2022/10/17 12:19:50;;;;;;;;;;;;;;;23.36;33.00;101901.56;5377757;32;34126;-72
2022/10/17 12:23:02;;;;;;;;;;;;;;;23.39;32.47;101896.84;5377596;32;33977;-72
2022/10/17 12:26:05;;;;;;;;;;;;;;;24.45;29.88;101898.25;5372070;32;33632;-78
2022/10/17 12:29:15;;;;;;;;;;;;;;;24.74;29.45;101887.19;5392647;32;35039;-71
2022/10/17 12:32:17;;;;;;;;;;;;;;;24.65;29.33;101894.09;5369076;32;44414;-74
2022/10/17 12:35:20;;;;;;;;;;;;;;;24.02;30.62;101881.69;5380323;32;35585;-71
2022/10/17 12:38:23;;;;;;;;;;;;;;;24.72;29.39;101883.72;5393129;32;34288;-74
2022/10/17 12:41:36;;;;;;;;;;;;;;;25.59;28.03;101877.87;5380552;32;35537;-77
2022/10/17 12:44:38;;;;;;;;;;;;;;;26.02;27.23;101873.63;5394005;32;35558;-68
2022/10/17 12:47:40;;;;;;;;;;;;;;;24.60;29.63;101866.69;5383031;32;44498;-72
2022/10/17 12:51:01;;;;;;;;;;;;;;;24.15;30.52;101871.78;5382308;32;35371;-71
2022/10/17 12:54:25;;;;;;;;;;;;;;;26.36;27.46;101872.59;5391511;32;35660;-71
2022/10/17 12:57:32;;;;;;;;;;;;;;;25.98;27.77;101869.47;5383279;32;35283;-77
2022/10/17 13:00:35;;;;;;;;;;;;;;;25.28;28.37;101865.97;5387408;32;34418;-75
2022/10/17 13:03:40;;;;;;;;;;;;;;;26.67;26.43;101870.09;5379121;32;34229;-71
2022/10/17 13:06:44;;;;;;;;;;;;;;;26.21;26.93;101865.75;5383161;32;44683;-73
2022/10/17 13:09:46;;;;;;;;;;;;;;;27.98;24.17;101856.00;5366473;32;36762;-75
2022/10/17 13:12:48;;;;;;;;;;;;;;;28.81;23.07;101856.56;5378327;32;33827;-77
2022/10/17 13:15:50;;;;;;;;;;;;;;;27.44;25.00;101862.56;5392851;32;34195;-76
2022/10/17 13:18:53;;;;;;;;;;;;;;;27.80;24.03;101852.22;5381215;32;35793;-70
2022/10/17 13:21:57;;;;;;;;;;;;;;;29.67;21.72;101847.41;5393376;32;34073;-78
2022/10/17 13:25:08;;;;;;;;;;;;;;;29.78;21.54;101845.53;5364676;32;35599;-72
2022/10/17 13:28:11;;;;;;;;;;;;;;;31.21;20.12;101838.31;5382455;32;44279;-71
2022/10/17 13:31:27;;;;;;;;;;;;;;;31.84;19.47;101839.91;5387347;32;35460;-74
2022/10/17 13:34:30;;;;;;;;;;;;;;;30.16;21.65;101848.06;5364703;32;35588;-79
2022/10/17 13:37:33;;;;;;;;;;;;;;;32.92;17.44;101840.81;5383109;32;34188;-76
2022/10/17 13:40:41;;;;;;;;;;;;;;;31.71;18.36;101837.59;5370494;32;35229;-72
2022/10/17 13:43:51;;;;;;;;;;;;;;;30.48;19.54;101844.81;5380978;32;34405;-75
2022/10/17 13:46:53;;;;;;;;;;;;;;;30.73;19.63;101832.38;5390311;32;34258;-75
2022/10/17 13:49:55;;;;;;;;;;;;;;;29.64;20.42;101834.19;5372098;32;34851;-82
2022/10/17 13:53:16;;;;;;;;;;;;;;;26.73;23.82;101845.28;5390976;32;34169;-76
2022/10/17 13:56:19;;;;;;;;;;;;;;;28.35;22.42;101831.06;5376648;32;44823;-74
2022/10/17 13:59:31;;;;;;;;;;;;;;;25.94;25.57;101847.31;5384398;32;33699;-78
2022/10/17 14:02:34;;;;;;;;;;;;;;;26.36;24.68;101842.09;5384749;32;36237;-72
2022/10/17 14:05:42;;;;;;;;;;;;;;;25.89;25.56;101845.00;5380235;32;34905;-71
2022/10/17 14:08:47;;;;;;;;;;;;;;;24.69;27.34;101849.03;5372986;32;44587;-73
2022/10/17 14:12:15;;;;;;;;;;;;;;;24.26;27.96;101839.59;5370768;32;34340;-74
2022/10/17 14:15:17;;;;;;;;;;;;;;;24.24;28.10;101835.34;5385728;32;43860;-75
2022/10/17 14:18:29;;;;;;;;;;;;;;;24.70;27.24;101832.78;5379899;32;37547;-72
2022/10/17 14:21:36;;;;;;;;;;;;;;;24.74;27.16;101834.25;5379365;32;34281;-75
2022/10/17 14:24:45;;;;;;;;;;;;;;;24.32;28.18;101838.28;5374252;32;43399;-70
2022/10/17 14:28:03;;;;;;;;;;;;;;;23.72;29.02;101837.28;5379451;32;36018;-70
2022/10/17 14:31:13;;;;;;;;;;;;;;;22.79;30.58;101833.00;5386021;32;34726;-81
2022/10/17 14:34:19;;;;;;;;;;;;;;;23.65;29.13;101830.66;5376569;32;44722;-74
2022/10/17 14:37:30;;;;;;;;;;;;;;;24.05;28.36;101844.72;5366899;32;34812;-76
2022/10/17 14:40:32;;;;;;;;;;;;;;;23.69;29.04;101839.31;5375885;32;35386;-73
2022/10/17 14:43:34;;;;;;;;;;;;;;;24.09;28.63;101836.44;5373991;32;35192;-74
2022/10/17 14:46:37;;;;;;;;;;;;;;;23.64;29.28;101828.94;5391601;32;35630;-77
2022/10/17 14:49:39;;;;;;;;;;;;;;;24.15;28.51;101836.87;5369272;32;34074;-74
2022/10/17 14:52:48;;;;;;;;;;;;;;;23.66;29.52;101829.69;5386037;32;44369;-77
2022/10/17 14:55:57;;;;;;;;;;;;;;;23.07;30.67;101832.03;5385371;32;35618;-72
2022/10/17 14:59:01;;;;;;;;;;;;;;;22.88;31.15;101835.09;5377181;32;35772;-73
2022/10/17 15:02:03;;;;;;;;;;;;;;;23.35;30.49;101830.94;5390486;32;34554;-77
2022/10/17 15:05:05;;;;;;;;;;;;;;;23.32;30.67;101824.97;5369968;32;37275;-76
2022/10/17 15:08:14;;;;;;;;;;;;;;;23.71;29.88;101832.03;5377314;32;44509;-78
2022/10/17 15:11:16;;;;;;;;;;;;;;;23.88;29.78;101831.66;5358513;32;34808;-72
2022/10/17 15:14:21;;;;;;;;;;;;;;;23.74;29.97;101826.44;5373460;32;34414;-75
2022/10/17 15:17:24;;;;;;;;;;;;;;;23.21;30.96;101839.97;5387595;32;35490;-72
2022/10/17 15:20:28;;;;;;;;;;;;;;;22.71;32.00;101836.19;5365897;32;34249;-74
2022/10/17 15:23:30;;;;;;;;;;;;;;;23.26;31.38;101841.47;5373471;32;34540;-72
2022/10/17 15:26:32;;;;;;;;;;;;;;;23.31;31.39;101836.63;5379629;32;35307;-73
2022/10/17 15:29:34;;;;;;;;;;;;;;;23.08;32.19;101839.09;5375044;32;33384;-85
2022/10/17 15:32:37;;;;;;;;;;;;;;;22.60;33.14;101848.59;5385849;32;33652;-75
2022/10/17 15:35:38;;;;;;;;;;;;;;;22.41;33.79;101847.16;5369560;32;34862;-79
2022/10/17 15:38:40;;;;;;;;;;;;;;;22.63;33.46;101841.22;5389755;32;46505;-74
2022/10/17 15:41:42;;;;;;;;;;;;;;;21.96;34.99;101850.97;5376170;32;34942;-78
2022/10/17 15:44:48;;;;;;;;;;;;;;;23.10;32.99;101849.72;5385395;32;34354;-76
2022/10/17 15:47:54;;;;;;;;;;;;;;;23.28;32.81;101855.62;5358749;32;34756;-75
2022/10/17 15:50:56;;;;;;;;;;;;;;;23.09;33.30;101846.16;5379554;32;36839;-74